This is the latest recevied weather packets stored in our database for station/object WC0AA. If no packets are shown the sender has not sent any weather packets the latest 10 day(s).
| Time | Temp. | Humidity | Pressure | Rain* | Wind** | Luminosity | Snow |
|---|---|---|---|---|---|---|---|
| 1777809604 | 11.11° C | 65% | 1012.4 hPa | 0 mm | - | - | - |
| 1777805404 | 9.44° C | 64% | 1012.6 hPa | 0 mm | - | - | - |
| 1777803004 | 9.44° C | 63% | 1013.2 hPa | 0 mm | - | - | - |
| 1777797004 | 10.56° C | 58% | 1013.6 hPa | 0 mm | - | - | - |
| 1777790405 | 10.56° C | 58% | 1014.7 hPa | 0 mm | - | - | - |
| 1777789205 | 10.56° C | 58% | 1014.8 hPa | 0 mm | - | - | - |
| 1777788004 | 10.56° C | 57% | 1014.8 hPa | 0 mm | - | - | - |
| 1777787404 | 10.56° C | 57% | 1014.9 hPa | 0 mm | - | - | - |
| 1777782605 | 11.67° C | 53% | 1015.9 hPa | 0 mm | - | - | - |
| 1777780205 | 12.22° C | 50% | 1016.2 hPa | 0 mm | - | - | - |
| 1777778405 | 12.78° C | 48% | 1016.6 hPa | 0 mm | - | - | - |
| 1777776004 | 13.33° C | 47% | 1016.7 hPa | 0 mm | - | - | - |
| 1777771204 | 16.11° C | 38% | 1016.5 hPa | 0 mm | - | - | - |
| 1777766404 | 18.33° C | 33% | 1017.2 hPa | 0 mm | - | - | - |
| 1777762804 | 20.56° C | 28% | 1017.7 hPa | 0 mm | - | - | - |
| 1777761004 | 20° C | 28% | 1017.8 hPa | 0 mm | - | - | - |
| 1777753804 | 21.11° C | 27% | 1019.4 hPa | 0 mm | - | - | - |
| 1777744205 | 18.89° C | 27% | 1021.4 hPa | 0 mm | - | - | - |
| 1777743604 | 17.78° C | 29% | 1021.7 hPa | 0 mm | - | - | - |
| 1777735205 | 16.11° C | 35% | 1022.2 hPa | 0 mm | - | - | - |
| 1777734005 | 14.44° C | 42% | 1022.2 hPa | 0 mm | - | - | - |
| 1777733405 | 13.33° C | 39% | 1022.2 hPa | 0 mm | - | - | - |
| 1777730404 | 12.22° C | 47% | 1022.2 hPa | 0 mm | - | - | - |
| 1777729805 | 11.67° C | 54% | 1022.2 hPa | 0 mm | - | - | - |
| 1777729204 | 10.56° C | 58% | 1022.2 hPa | 0 mm | - | - | - |
* Rain latest hour (hover to see other rain measurements)
** Current wind speed in m/s (hover to see current wind gust speed)